createdAt,value
2019-02-27T00:02:23.414Z,65.76
2019-02-27T00:04:55.310Z,66.00
2019-02-27T00:07:31.043Z,66.23
2019-02-27T00:10:06.118Z,66.53
2019-02-27T00:12:40.940Z,66.72
2019-02-27T00:15:14.960Z,66.82
2019-02-27T00:17:51.145Z,66.83
2019-02-27T00:20:23.821Z,67.00
2019-02-27T00:23:01.547Z,67.30
2019-02-27T00:25:35.874Z,67.43
2019-02-27T00:28:03.930Z,67.47
2019-02-27T00:30:37.957Z,67.49
2019-02-27T00:33:06.667Z,67.44
2019-02-27T00:35:39.570Z,67.55
2019-02-27T00:38:10.366Z,67.66
2019-02-27T00:40:43.187Z,67.86
2019-02-27T00:43:19.882Z,67.99
2019-02-27T00:45:51.061Z,68.18
2019-02-27T00:48:25.992Z,68.46
2019-02-27T00:50:54.892Z,68.58
2019-02-27T00:53:25.248Z,68.66
2019-02-27T00:55:57.297Z,68.59
2019-02-27T00:58:29.262Z,68.45
2019-02-27T01:00:59.700Z,68.31
2019-02-27T01:03:31.964Z,68.02
2019-02-27T01:06:05.778Z,67.64
2019-02-27T01:08:42.083Z,67.49
2019-02-27T01:11:18.134Z,67.58
2019-02-27T01:13:46.070Z,67.72
2019-02-27T01:16:18.362Z,67.85
2019-02-27T01:18:51.036Z,67.89
2019-02-27T01:21:23.190Z,67.84
2019-02-27T01:23:53.710Z,67.73
2019-02-27T01:26:25.261Z,67.62
2019-02-27T01:29:03.032Z,67.35
2019-02-27T01:31:47.325Z,67.16
2019-02-27T01:34:11.110Z,67.38
2019-02-27T01:36:41.677Z,67.65
2019-02-27T01:39:14.625Z,67.98
2019-02-27T01:41:45.010Z,68.07
2019-02-27T01:44:24.421Z,68.43
2019-02-27T01:46:52.113Z,68.74
2019-02-27T01:49:27.175Z,69.06
2019-02-27T01:52:02.090Z,69.09
2019-02-27T01:54:31.456Z,69.47
2019-02-27T01:57:02.850Z,69.63
2019-02-27T01:59:38.065Z,69.69
2019-02-27T02:02:08.322Z,69.67
2019-02-27T02:04:42.700Z,69.78
2019-02-27T02:07:19.630Z,69.96
2019-02-27T02:09:52.183Z,70.20
2019-02-27T02:12:33.481Z,70.43
2019-02-27T02:15:17.292Z,70.59
2019-02-27T02:18:32.512Z,70.71
2019-02-27T02:21:37.201Z,70.69
2019-02-27T02:24:30.734Z,70.54
2019-02-27T02:27:36.122Z,70.54
2019-02-27T02:30:45.945Z,70.97
2019-02-27T02:33:40.127Z,71.09
2019-02-27T02:36:36.902Z,71.07
2019-02-27T02:39:47.210Z,71.07
2019-02-27T02:42:59.125Z,70.99
2019-02-27T02:45:40.003Z,71.14
2019-02-27T02:49:06.210Z,71.31
2019-02-27T02:51:40.031Z,71.28
2019-02-27T02:54:55.079Z,71.46
2019-02-27T02:57:58.988Z,71.67
2019-02-27T03:01:04.409Z,71.62
2019-02-27T03:04:12.476Z,71.60
2019-02-27T03:07:21.928Z,71.80
2019-02-27T03:10:25.335Z,71.53
2019-02-27T03:13:42.041Z,71.25
2019-02-27T03:16:55.581Z,70.92
2019-02-27T03:19:55.817Z,70.32
2019-02-27T03:22:54.318Z,69.81
2019-02-27T03:25:55.078Z,69.53
2019-02-27T03:29:04.368Z,69.30
2019-02-27T03:32:12.076Z,69.21
2019-02-27T03:35:27.447Z,68.93
2019-02-27T03:38:14.956Z,68.61
2019-02-27T03:41:13.766Z,68.08
2019-02-27T03:44:10.064Z,67.90
2019-02-27T03:47:23.445Z,67.81
2019-02-27T03:50:23.127Z,67.98
2019-02-27T03:53:29.835Z,68.45
2019-02-27T03:56:19.700Z,68.76
2019-02-27T03:59:42.497Z,69.10
2019-02-27T04:02:49.601Z,69.32
2019-02-27T04:05:58.127Z,69.57
2019-02-27T04:08:57.101Z,69.84
2019-02-27T04:11:28.256Z,70.14
2019-02-27T04:14:04.738Z,70.37
2019-02-27T04:16:34.023Z,70.16
2019-02-27T04:19:12.976Z,70.16
2019-02-27T04:21:40.246Z,70.33
2019-02-27T04:24:13.672Z,70.37
2019-02-27T04:26:44.286Z,70.86
2019-02-27T04:29:14.698Z,70.86
2019-02-27T04:31:46.482Z,70.57
2019-02-27T04:34:16.775Z,70.59
2019-02-27T04:36:52.614Z,70.64
2019-02-27T04:39:22.948Z,70.69
2019-02-27T04:41:55.157Z,70.76
2019-02-27T04:44:30.168Z,70.72
2019-02-27T04:47:00.513Z,70.68
2019-02-27T04:49:34.818Z,70.48
2019-02-27T04:52:07.106Z,70.36
2019-02-27T04:54:41.274Z,70.09
2019-02-27T04:57:11.060Z,70.09
2019-02-27T04:59:41.649Z,69.97
2019-02-27T05:02:14.565Z,69.89
2019-02-27T05:04:45.727Z,69.72
2019-02-27T05:07:20.915Z,69.60
2019-02-27T05:09:51.901Z,69.45
2019-02-27T05:12:23.441Z,69.47
2019-02-27T05:14:55.615Z,69.23
2019-02-27T05:17:28.432Z,69.23
2019-02-27T05:20:05.585Z,69.37
2019-02-27T05:22:37.038Z,69.40
2019-02-27T05:25:19.133Z,69.48
2019-02-27T05:27:49.539Z,69.62
2019-02-27T05:30:21.788Z,69.03
2019-02-27T05:32:52.080Z,69.03
2019-02-27T05:35:24.263Z,69.05
2019-02-27T05:37:56.857Z,68.74
2019-02-27T05:40:30.918Z,68.48
2019-02-27T05:43:01.320Z,68.57
2019-02-27T05:45:32.938Z,68.55
2019-02-27T05:48:03.265Z,68.73
2019-02-27T05:50:35.356Z,68.81
2019-02-27T05:53:05.697Z,68.88
2019-02-27T05:55:39.024Z,68.94
2019-02-27T05:58:12.690Z,69.45
2019-02-27T06:00:43.369Z,69.45
2019-02-27T06:03:18.293Z,69.32
2019-02-27T06:05:49.760Z,69.48
2019-02-27T06:08:20.247Z,69.72
2019-02-27T06:11:21.347Z,69.71
2019-02-27T06:13:32.171Z,69.90
2019-02-27T06:16:09.421Z,70.09
2019-02-27T06:18:39.886Z,70.18
2019-02-27T06:21:26.259Z,70.26
2019-02-27T06:23:56.895Z,70.19
2019-02-27T06:26:32.325Z,70.22
2019-02-27T06:29:01.980Z,70.03
2019-02-27T06:31:36.821Z,70.13
2019-02-27T06:34:07.980Z,69.65
2019-02-27T06:36:42.791Z,69.47
2019-02-27T06:39:12.121Z,69.35
2019-02-27T06:42:02.636Z,69.21
2019-02-27T06:44:29.661Z,68.59
2019-02-27T06:47:10.591Z,68.10
2019-02-27T06:49:51.963Z,67.85
2019-02-27T06:52:23.228Z,67.79
2019-02-27T06:54:54.107Z,67.85
2019-02-27T06:57:24.410Z,67.52
2019-02-27T06:59:57.485Z,67.15
2019-02-27T07:02:29.877Z,66.83
2019-02-27T07:05:00.666Z,66.43
2019-02-27T07:07:31.279Z,65.17
2019-02-27T07:10:05.297Z,63.82
2019-02-27T07:12:35.891Z,63.47
2019-02-27T07:15:07.302Z,63.17
2019-02-27T07:17:37.638Z,62.63
2019-02-27T07:20:10.079Z,62.11
2019-02-27T07:22:53.852Z,61.76
2019-02-27T07:25:17.890Z,61.50
2019-02-27T07:28:00.388Z,61.41
2019-02-27T07:30:34.511Z,61.49
2019-02-27T07:33:06.689Z,61.54
2019-02-27T07:35:40.194Z,61.55
2019-02-27T07:38:10.625Z,61.45
2019-02-27T07:40:43.530Z,61.37
2019-02-27T07:43:15.866Z,61.17
2019-02-27T07:45:46.219Z,61.00
2019-02-27T07:48:19.858Z,61.09
2019-02-27T07:50:50.482Z,60.81
2019-02-27T07:53:20.840Z,60.38
2019-02-27T07:55:54.048Z,60.19
2019-02-27T07:58:29.280Z,59.49
2019-02-27T08:00:58.954Z,59.49
2019-02-27T08:03:39.716Z,58.34
2019-02-27T08:06:14.286Z,57.40
2019-02-27T08:08:44.822Z,56.72
2019-02-27T08:11:19.335Z,56.05
2019-02-27T08:13:52.321Z,55.64
2019-02-27T08:16:23.853Z,55.23
2019-02-27T08:18:55.610Z,44.22
2019-02-27T08:21:26.441Z,31.89
2019-02-27T08:24:06.709Z,25.89
2019-02-27T08:26:36.411Z,21.87
2019-02-27T08:29:07.529Z,20.36
2019-02-27T08:32:02.066Z,19.51
2019-02-27T08:34:12.681Z,20.70
2019-02-27T08:36:44.172Z,21.87
2019-02-27T08:39:14.928Z,20.82
2019-02-27T08:41:54.155Z,18.76
2019-02-27T08:44:33.284Z,17.84
2019-02-27T08:47:01.169Z,17.02
2019-02-27T08:49:32.795Z,15.79
2019-02-27T08:52:15.626Z,15.82
2019-02-27T08:54:45.493Z,16.35
2019-02-27T08:57:15.923Z,16.91
2019-02-27T08:59:50.813Z,17.08
2019-02-27T09:02:21.289Z,17.62
2019-02-27T09:04:55.594Z,18.21
2019-02-27T09:07:30.210Z,18.81
2019-02-27T09:10:00.854Z,18.83
2019-02-27T09:12:31.349Z,18.77
2019-02-27T09:15:02.028Z,16.72
2019-02-27T09:17:33.173Z,15.27
2019-02-27T09:20:06.941Z,14.84
2019-02-27T09:22:37.666Z,15.03
2019-02-27T09:25:12.530Z,14.95
2019-02-27T09:27:44.022Z,13.82
2019-02-27T09:30:15.608Z,13.47
2019-02-27T09:32:47.680Z,12.67
2019-02-27T09:35:18.489Z,12.45
2019-02-27T09:37:52.450Z,12.61
2019-02-27T09:40:30.011Z,11.97
2019-02-27T09:43:00.647Z,11.97
2019-02-27T09:45:35.357Z,12.12
2019-02-27T09:48:05.318Z,11.86
2019-02-27T09:50:39.226Z,11.62
2019-02-27T09:53:17.575Z,11.78
2019-02-27T09:55:48.107Z,11.29
2019-02-27T09:58:18.958Z,11.20
2019-02-27T10:00:52.417Z,10.84
2019-02-27T10:03:22.953Z,10.28
2019-02-27T10:05:56.232Z,10.15
2019-02-27T10:08:28.361Z,10.24
2019-02-27T10:10:58.793Z,9.99
2019-02-27T10:13:35.451Z,9.55
2019-02-27T10:16:05.355Z,9.79
2019-02-27T10:18:36.273Z,9.69
2019-02-27T10:21:09.377Z,9.70
2019-02-27T10:23:39.414Z,9.62
2019-02-27T10:26:10.008Z,9.77
2019-02-27T10:28:40.915Z,9.62
2019-02-27T10:31:15.667Z,9.45
2019-02-27T10:33:50.997Z,9.45
2019-02-27T10:36:21.685Z,10.40
2019-02-27T10:38:53.235Z,10.63
2019-02-27T10:41:44.934Z,10.54
2019-02-27T10:44:20.071Z,10.80
2019-02-27T10:46:43.547Z,10.76
2019-02-27T10:49:15.886Z,10.62
2019-02-27T10:51:59.091Z,10.90
2019-02-27T10:54:29.720Z,11.18
2019-02-27T10:57:14.052Z,13.60
2019-02-27T10:59:48.210Z,17.12
2019-02-27T11:02:20.325Z,20.28
2019-02-27T11:05:08.748Z,22.41
2019-02-27T11:07:39.608Z,23.77
2019-02-27T11:10:13.650Z,25.34
2019-02-27T11:12:51.233Z,25.96
2019-02-27T11:15:41.384Z,27.11
2019-02-27T11:18:06.352Z,27.11
2019-02-27T11:20:42.290Z,27.62
2019-02-27T11:23:13.097Z,27.93
2019-02-27T11:25:44.736Z,28.41
2019-02-27T11:28:15.130Z,28.69
2019-02-27T11:30:46.537Z,28.57
2019-02-27T11:33:25.554Z,28.98
2019-02-27T11:35:53.377Z,29.07
2019-02-27T11:38:24.804Z,29.39
2019-02-27T11:41:00.502Z,29.29
2019-02-27T11:43:31.402Z,29.40
2019-02-27T11:46:02.079Z,29.67
2019-02-27T11:48:34.129Z,29.80
2019-02-27T11:51:04.560Z,29.65
2019-02-27T11:53:36.574Z,29.36
2019-02-27T11:56:07.140Z,29.62
2019-02-27T11:58:43.793Z,29.45
2019-02-27T12:01:21.867Z,29.29
2019-02-27T12:03:50.568Z,28.86
2019-02-27T12:06:21.480Z,28.72
2019-02-27T12:09:04.422Z,28.73
2019-02-27T12:11:36.483Z,28.92
2019-02-27T12:14:09.894Z,28.92
2019-02-27T12:16:43.324Z,28.49
2019-02-27T12:19:14.415Z,28.48
2019-02-27T12:21:45.920Z,28.54
2019-02-27T12:24:27.417Z,28.06
2019-02-27T12:26:53.254Z,27.97
2019-02-27T12:29:35.454Z,28.03
2019-02-27T12:31:55.783Z,28.17
2019-02-27T12:34:26.633Z,28.27
2019-02-27T12:36:59.750Z,28.41
2019-02-27T12:39:30.623Z,28.65
2019-02-27T12:42:04.137Z,28.57
2019-02-27T12:44:39.532Z,28.64
2019-02-27T12:47:11.189Z,28.83
2019-02-27T12:49:41.779Z,28.56
2019-02-27T12:52:24.079Z,28.56
2019-02-27T12:54:53.088Z,28.84
2019-02-27T12:57:26.645Z,28.57
2019-02-27T13:00:01.241Z,28.79
2019-02-27T13:02:35.615Z,28.77
2019-02-27T13:05:06.750Z,28.57
2019-02-27T13:07:37.339Z,28.20
2019-02-27T13:10:09.935Z,28.28
2019-02-27T13:12:41.630Z,28.47
2019-02-27T13:15:16.878Z,28.33
2019-02-27T13:17:49.119Z,28.21
2019-02-27T13:20:21.951Z,28.36
2019-02-27T13:22:52.392Z,28.39
2019-02-27T13:25:25.685Z,28.39
2019-02-27T13:27:56.601Z,28.54
2019-02-27T13:30:27.023Z,28.29
2019-02-27T13:33:06.667Z,28.27
2019-02-27T13:35:37.736Z,28.00
2019-02-27T13:38:08.130Z,27.93
2019-02-27T13:40:41.050Z,27.87
2019-02-27T13:43:11.355Z,28.06
2019-02-27T13:45:41.929Z,28.34
2019-02-27T13:48:12.557Z,27.37
2019-02-27T13:50:44.188Z,27.34
2019-02-27T13:53:16.452Z,27.18
2019-02-27T13:55:50.455Z,27.18
2019-02-27T13:58:23.101Z,27.00
2019-02-27T14:01:44.709Z,27.08
2019-02-27T14:03:28.741Z,27.30
2019-02-27T14:06:09.005Z,27.57
2019-02-27T14:08:33.333Z,27.50
2019-02-27T14:11:06.389Z,27.85
2019-02-27T14:13:36.674Z,27.99
2019-02-27T14:16:11.848Z,27.93
2019-02-27T14:18:55.994Z,27.89
2019-02-27T14:21:24.952Z,27.84
2019-02-27T14:23:57.016Z,27.92
2019-02-27T14:26:29.676Z,27.91
2019-02-27T14:28:59.985Z,28.03
2019-02-27T14:31:32.094Z,28.15
2019-02-27T14:34:02.508Z,27.90
2019-02-27T14:36:49.061Z,28.09
2019-02-27T14:39:21.220Z,28.25
2019-02-27T14:41:53.177Z,28.31
2019-02-27T14:44:24.165Z,28.37
2019-02-27T14:46:56.090Z,28.53
2019-02-27T14:49:31.204Z,28.54
2019-02-27T14:52:01.712Z,28.50
2019-02-27T14:54:33.584Z,28.64
2019-02-27T14:57:04.352Z,28.62
2019-02-27T14:59:34.940Z,28.81
2019-02-27T15:02:08.720Z,28.67
2019-02-27T15:04:42.281Z,28.66
2019-02-27T15:07:14.473Z,28.62
2019-02-27T15:09:50.309Z,28.40
2019-02-27T15:12:23.281Z,28.57
2019-02-27T15:14:53.907Z,28.70
2019-02-27T15:17:24.411Z,28.78
2019-02-27T15:19:55.290Z,28.86
2019-02-27T15:22:26.538Z,29.04
2019-02-27T15:25:00.283Z,29.20
2019-02-27T15:27:30.664Z,29.28
2019-02-27T15:30:02.837Z,29.51
2019-02-27T15:32:36.398Z,29.54
2019-02-27T15:35:07.694Z,29.51
2019-02-27T15:37:49.577Z,29.76
2019-02-27T15:40:16.998Z,29.73
2019-02-27T15:42:47.703Z,29.73
2019-02-27T15:45:21.844Z,29.90
2019-02-27T15:47:52.512Z,30.17
2019-02-27T15:50:30.162Z,30.08
2019-02-27T15:53:14.989Z,29.73
2019-02-27T15:55:37.977Z,29.82
2019-02-27T15:58:08.555Z,30.07
2019-02-27T16:00:42.568Z,30.37
2019-02-27T16:03:12.892Z,30.62
2019-02-27T16:05:55.457Z,30.69
2019-02-27T16:08:27.130Z,30.82
2019-02-27T16:10:57.423Z,30.94
2019-02-27T16:13:35.423Z,31.24
2019-02-27T16:16:13.374Z,31.50
2019-02-27T16:18:45.937Z,31.87
2019-02-27T16:21:17.535Z,31.75
2019-02-27T16:23:52.798Z,31.80
2019-02-27T16:26:27.023Z,31.87
2019-02-27T16:29:02.646Z,31.88
2019-02-27T16:31:37.173Z,31.94
2019-02-27T16:34:07.714Z,31.86
2019-02-27T16:36:39.743Z,32.07
2019-02-27T16:39:10.818Z,32.33
2019-02-27T16:41:47.842Z,32.52
2019-02-27T16:44:21.435Z,32.65
2019-02-27T16:46:52.333Z,33.11
2019-02-27T16:49:28.440Z,33.85
2019-02-27T16:51:58.884Z,33.85
2019-02-27T16:54:29.500Z,34.11
2019-02-27T16:57:02.443Z,34.38
2019-02-27T16:59:34.449Z,34.57
2019-02-27T17:02:08.563Z,34.76
2019-02-27T17:04:39.149Z,34.95
2019-02-27T17:07:09.752Z,35.23
2019-02-27T17:10:29.192Z,35.55
2019-02-27T17:12:28.283Z,35.55
2019-02-27T17:15:09.673Z,36.06
2019-02-27T17:17:36.448Z,36.14
2019-02-27T17:20:12.691Z,36.33
2019-02-27T17:22:44.935Z,36.43
2019-02-27T17:25:15.588Z,36.73
2019-02-27T17:27:49.816Z,37.06
2019-02-27T17:30:36.594Z,37.39
2019-02-27T17:33:18.168Z,37.74
2019-02-27T17:35:46.888Z,37.90
2019-02-27T17:38:17.930Z,38.01
2019-02-27T17:40:50.213Z,38.09
2019-02-27T17:43:20.798Z,38.18
2019-02-27T17:45:55.160Z,38.42
2019-02-27T17:48:25.851Z,38.70
2019-02-27T17:50:58.155Z,39.01
2019-02-27T17:53:30.001Z,39.40
2019-02-27T17:56:02.070Z,39.62
2019-02-27T17:58:38.524Z,39.60
2019-02-27T18:01:09.861Z,39.62
2019-02-27T18:03:43.576Z,39.69
2019-02-27T18:06:20.868Z,39.72
2019-02-27T18:08:52.398Z,40.03
2019-02-27T18:11:24.387Z,40.03
2019-02-27T18:13:57.992Z,40.51
2019-02-27T18:16:29.959Z,40.54
2019-02-27T18:19:04.324Z,40.62
2019-02-27T18:21:36.292Z,40.74
2019-02-27T18:24:19.500Z,40.92
2019-02-27T18:26:56.449Z,41.20
2019-02-27T18:29:31.245Z,41.54
2019-02-27T18:32:06.115Z,41.69
2019-02-27T18:34:42.632Z,41.64
2019-02-27T18:37:14.532Z,41.81
2019-02-27T18:39:45.151Z,42.01
2019-02-27T18:42:20.697Z,42.26
2019-02-27T18:44:50.956Z,42.51
2019-02-27T18:47:25.484Z,42.48
2019-02-27T18:49:55.807Z,42.66
2019-02-27T18:52:26.475Z,42.91
2019-02-27T18:55:04.175Z,43.33
2019-02-27T18:57:35.083Z,43.59
2019-02-27T19:00:07.783Z,43.90
2019-02-27T19:03:11.394Z,43.90
2019-02-27T19:05:22.366Z,43.93
2019-02-27T19:07:55.253Z,43.72
2019-02-27T19:10:29.834Z,43.75
2019-02-27T19:13:01.068Z,43.68
2019-02-27T19:15:33.134Z,43.68
2019-02-27T19:18:06.629Z,43.81
2019-02-27T19:20:37.388Z,44.10
2019-02-27T19:23:17.088Z,44.28
2019-02-27T19:25:43.635Z,44.42
2019-02-27T19:28:14.006Z,44.58
2019-02-27T19:30:44.392Z,44.64
2019-02-27T19:33:15.022Z,44.73
2019-02-27T19:35:46.846Z,44.89
2019-02-27T19:38:17.467Z,45.04
2019-02-27T19:40:52.138Z,45.03
2019-02-27T19:43:24.046Z,45.15
2019-02-27T19:45:56.031Z,45.29
2019-02-27T19:48:30.585Z,45.30
2019-02-27T19:51:00.907Z,45.45
2019-02-27T19:53:34.346Z,45.97
2019-02-27T19:56:04.823Z,45.98
2019-02-27T19:58:35.841Z,46.64
2019-02-27T20:01:11.334Z,46.72
2019-02-27T20:03:41.957Z,46.73
2019-02-27T20:06:13.570Z,46.81
2019-02-27T20:08:45.397Z,46.98
2019-02-27T20:11:17.538Z,47.15
2019-02-27T20:13:49.513Z,47.45
2019-02-27T20:16:21.702Z,47.55
2019-02-27T20:19:00.582Z,47.83
2019-02-27T20:21:31.643Z,47.90
2019-02-27T20:24:14.082Z,48.15
2019-02-27T20:26:44.417Z,48.41
2019-02-27T20:29:14.777Z,48.32
2019-02-27T20:31:48.379Z,48.60
2019-02-27T20:34:18.955Z,48.86
2019-02-27T20:36:49.319Z,49.00
2019-02-27T20:39:24.399Z,49.54
2019-02-27T20:41:54.846Z,49.77
2019-02-27T20:44:30.639Z,50.05
2019-02-27T20:47:08.134Z,50.33
2019-02-27T20:49:38.760Z,50.87
2019-02-27T20:52:14.512Z,50.97
2019-02-27T20:54:41.145Z,51.07
2019-02-27T20:57:11.528Z,51.12
2019-02-27T20:59:42.137Z,50.69
2019-02-27T21:02:12.765Z,50.33
2019-02-27T21:04:44.891Z,50.73
2019-02-27T21:07:22.039Z,51.07
2019-02-27T21:09:49.777Z,50.89
2019-02-27T21:12:24.318Z,50.95
2019-02-27T21:14:57.931Z,51.09
2019-02-27T21:17:32.706Z,51.04
2019-02-27T21:20:04.530Z,51.24
2019-02-27T21:22:35.032Z,51.59
2019-02-27T21:25:12.076Z,51.86
2019-02-27T21:27:52.551Z,51.78
2019-02-27T21:30:19.103Z,52.18
2019-02-27T21:32:50.960Z,52.41
2019-02-27T21:35:28.619Z,52.69
2019-02-27T21:37:57.594Z,53.04
2019-02-27T21:40:33.456Z,53.39
2019-02-27T21:43:13.713Z,53.33
2019-02-27T21:45:54.412Z,52.97
2019-02-27T21:48:26.715Z,53.22
2019-02-27T21:50:57.127Z,53.93
2019-02-27T21:53:30.087Z,54.16
2019-02-27T21:56:07.196Z,54.59
2019-02-27T21:58:37.948Z,54.70
2019-02-27T22:01:08.248Z,54.77
2019-02-27T22:03:50.095Z,54.98
2019-02-27T22:06:10.910Z,55.43
2019-02-27T22:08:42.722Z,56.36
2019-02-27T22:11:14.908Z,56.36
2019-02-27T22:13:46.940Z,56.89
2019-02-27T22:16:17.462Z,57.08
2019-02-27T22:18:51.152Z,57.15
2019-02-27T22:21:22.790Z,57.70
2019-02-27T22:23:55.119Z,57.53
2019-02-27T22:26:25.519Z,57.54
2019-02-27T22:28:56.120Z,57.42
2019-02-27T22:31:27.777Z,57.52
2019-02-27T22:33:59.395Z,57.20
2019-02-27T22:36:29.800Z,57.20
2019-02-27T22:39:01.185Z,57.55
2019-02-27T22:41:35.171Z,57.11
2019-02-27T22:44:05.721Z,57.11
2019-02-27T22:46:36.101Z,57.58
2019-02-27T22:49:06.703Z,57.66
2019-02-27T22:51:38.356Z,57.80
2019-02-27T22:54:08.947Z,57.73
2019-02-27T22:56:40.257Z,57.79
2019-02-27T22:59:15.393Z,57.83
2019-02-27T23:01:50.948Z,58.02
2019-02-27T23:04:21.727Z,58.15
2019-02-27T23:06:55.904Z,58.58
2019-02-27T23:09:26.572Z,58.61
2019-02-27T23:11:57.149Z,58.33
2019-02-27T23:14:27.804Z,58.20
2019-02-27T23:17:00.630Z,58.28
2019-02-27T23:19:32.912Z,58.58
2019-02-27T23:22:05.155Z,58.67
2019-02-27T23:24:35.479Z,58.88
2019-02-27T23:27:05.825Z,59.32
2019-02-27T23:29:39.879Z,59.85
2019-02-27T23:32:10.500Z,60.34
2019-02-27T23:34:41.743Z,60.57
2019-02-27T23:37:12.897Z,60.86
2019-02-27T23:39:44.232Z,61.12
2019-02-27T23:42:14.849Z,61.51
2019-02-27T23:44:45.560Z,61.80
2019-02-27T23:47:19.406Z,62.13
2019-02-27T23:49:49.737Z,62.31
2019-02-27T23:52:22.382Z,62.58
2019-02-27T23:54:53.339Z,62.50
2019-02-27T23:57:25.324Z,62.30
2019-02-27T23:59:56.449Z,62.28
